Concordia, Missouri
Current Conditions -  °F | °C
As of 2:18 AM on Saturday 20 Dec 2014 (Local Time) from KSZL Reporting Station
Haze Haze  
Wind Chill: 37°   Ceiling: 300
Heat Index: 37°   Visibility: 0.75mi
Dew Point: 36°   Wind: 3mph
Humidity: 93%   Direction: 190°S
Pressure: 30.2"   Gusts: NA
Location:  38.98°N, 93.57°W
Report Text: KSZL 200818Z AUTO 19003KT 3/4SM R19/2000FT BR VV003 03/02 A3020 RMK AO2 $
Loading
Personal Weather Stations






























Interactive Weather Map New forecast layout! Learn more

10-Day Weather Forecast

Advertisements
Track Severe Weather on mobile